Portada
METAR-TAF:

METAR-TAF

Aeroports :

Dare County Regional Airport

Manteo, Carolina del Nord, Estats Units d'Amèrica

latitud: 35-55N, longitud: 075-42W, altitud: 4 m

Observació

L'informe es va fer fa 22 minuts, a les 22:55 UTC
Vent 6 kt del Nord-Est
Temperatura 3°C
Humitat 60%
Pressió 1029 hPa
Visibilitat: 16.1 km
Núvols disperses a una alçada de 3200 ft

METAR: KMQI 132255Z AUTO 04006KT 10SM SCT032 03/M04 A3040 RMK AO2 T00271039

Hora: 18:17 (23:17 UTC)


TAF: manca

Observacions i pronòstics meteorològics de més de 4000 aeroports (METAR i TAF).

Les estacions disponibles són els punts grocs i vermells al mapa.

Posi el ratolí al punt desitjat per veure el nom de l'estació.

Feu clic per veure les observacions i els pronòstics meteorològics.

Per canviar el mapa: feu clic els botons verds amb una creu de color negre per apropar; al botó verd amb un guió per allunyar la imatge; o en les fletxes verdes per a mapes adjacents.


METAR-TAF: